createdAt,value
2022-09-26T00:01:37.896Z,38.35
2022-09-26T00:04:31.787Z,37.20
2022-09-26T00:07:00.123Z,42.15
2022-09-26T00:09:28.487Z,44.75
2022-09-26T00:11:55.894Z,37.42
2022-09-26T00:14:28.772Z,41.15
2022-09-26T00:16:57.883Z,35.53
2022-09-26T00:19:25.351Z,40.63
2022-09-26T00:21:52.914Z,39.53
2022-09-26T00:24:20.337Z,42.83
2022-09-26T00:26:47.807Z,44.15
2022-09-26T00:29:15.346Z,52.83
2022-09-26T00:31:45.788Z,45.08
2022-09-26T00:34:15.644Z,39.83
2022-09-26T00:36:43.135Z,42.15
2022-09-26T00:39:13.394Z,42.83
2022-09-26T00:41:40.998Z,41.65
2022-09-26T00:44:33.162Z,41.92
2022-09-26T00:47:01.213Z,37.78
2022-09-26T00:49:38.269Z,37.67
2022-09-26T00:52:21.699Z,44.05
2022-09-26T00:54:52.038Z,44.92
2022-09-26T00:57:28.537Z,51.42
2022-09-26T01:00:01.552Z,47.40
2022-09-26T01:02:29.420Z,48.05
2022-09-26T01:04:58.577Z,43.75
2022-09-26T01:07:29.661Z,50.28
2022-09-26T01:09:57.991Z,50.65
2022-09-26T01:12:25.654Z,44.47
2022-09-26T01:14:54.476Z,40.95
2022-09-26T01:17:24.072Z,39.78
2022-09-26T01:20:03.356Z,39.88
2022-09-26T01:23:02.558Z,43.47
2022-09-26T01:26:07.257Z,38.88
2022-09-26T01:28:57.292Z,39.25
2022-09-26T01:32:12.364Z,40.92
2022-09-26T01:34:47.260Z,45.53
2022-09-26T01:37:17.814Z,41.20
2022-09-26T01:40:03.546Z,40.40
2022-09-26T01:42:52.071Z,39.03
2022-09-26T01:45:23.825Z,35.40
2022-09-26T01:48:09.824Z,38.72
2022-09-26T01:50:45.459Z,38.67
2022-09-26T01:53:19.768Z,39.47
2022-09-26T01:56:01.291Z,38.50
2022-09-26T01:58:38.099Z,38.38
2022-09-26T02:01:11.552Z,41.08
2022-09-26T02:03:50.657Z,37.75
2022-09-26T02:06:23.813Z,37.33
2022-09-26T02:08:59.225Z,37.00
2022-09-26T02:11:27.162Z,39.63
2022-09-26T02:14:04.182Z,42.63
2022-09-26T02:16:37.315Z,37.35
2022-09-26T02:19:29.933Z,35.63
2022-09-26T02:21:59.103Z,35.65
2022-09-26T02:24:27.370Z,39.22
2022-09-26T02:26:54.949Z,39.25
2022-09-26T02:29:23.079Z,39.28
2022-09-26T02:32:00.892Z,45.88
2022-09-26T02:34:29.533Z,50.95
2022-09-26T02:36:58.394Z,56.03
2022-09-26T02:39:29.843Z,51.92
2022-09-26T02:42:44.035Z,58.92
2022-09-26T02:45:32.558Z,56.17
2022-09-26T02:48:03.215Z,55.10
2022-09-26T02:50:39.106Z,55.35
2022-09-26T02:53:34.026Z,63.10
2022-09-26T02:56:16.437Z,60.70
2022-09-26T02:58:52.091Z,59.80
2022-09-26T03:01:30.065Z,61.25
2022-09-26T03:04:15.458Z,62.55
2022-09-26T03:06:46.588Z,66.22
2022-09-26T03:09:16.381Z,63.08
2022-09-26T03:11:44.299Z,62.28
2022-09-26T03:14:13.208Z,61.58
2022-09-26T03:16:44.475Z,63.50
2022-09-26T03:19:36.366Z,60.25
2022-09-26T03:22:04.670Z,62.05
2022-09-26T03:24:35.563Z,63.95
2022-09-26T03:27:05.164Z,62.42
2022-09-26T03:29:34.670Z,61.17
2022-09-26T03:32:02.637Z,60.92
2022-09-26T03:34:30.067Z,61.28
2022-09-26T03:36:57.612Z,62.33
2022-09-26T03:39:25.051Z,62.08
2022-09-26T03:42:06.799Z,59.58
2022-09-26T03:44:34.645Z,61.72
2022-09-26T03:47:05.258Z,59.40
2022-09-26T03:49:37.410Z,59.60
2022-09-26T03:52:07.131Z,62.65
2022-09-26T03:54:34.543Z,61.25
2022-09-26T03:57:02.579Z,63.63
2022-09-26T03:59:29.987Z,62.50
2022-09-26T04:01:57.554Z,66.15
2022-09-26T04:04:25.476Z,64.15
2022-09-26T04:06:53.893Z,67.25
2022-09-26T04:09:21.557Z,67.50
2022-09-26T04:11:53.173Z,71.35
2022-09-26T04:14:21.854Z,67.65
2022-09-26T04:16:54.557Z,73.75
2022-09-26T04:19:38.366Z,70.47
2022-09-26T04:22:08.255Z,69.90
2022-09-26T04:24:36.299Z,73.13
2022-09-26T04:27:04.870Z,72.35
2022-09-26T04:29:32.562Z,77.88
2022-09-26T04:32:12.602Z,80.68
2022-09-26T04:35:12.339Z,73.40
2022-09-26T04:37:40.241Z,73.03
2022-09-26T04:40:10.115Z,77.63
2022-09-26T04:42:42.641Z,75.35
2022-09-26T04:45:10.461Z,71.07
2022-09-26T04:47:37.835Z,71.03
2022-09-26T04:50:29.032Z,72.57
2022-09-26T04:53:06.470Z,68.78
2022-09-26T04:55:37.687Z,77.32
2022-09-26T04:58:05.164Z,74.15
2022-09-26T05:00:32.733Z,78.70
2022-09-26T05:03:05.092Z,75.50
2022-09-26T05:05:33.102Z,74.22
2022-09-26T05:08:00.592Z,77.38
2022-09-26T05:10:28.560Z,81.32
2022-09-26T05:13:02.275Z,75.85
2022-09-26T05:15:30.870Z,76.45
2022-09-26T05:18:01.889Z,68.30
2022-09-26T05:20:31.898Z,64.50
2022-09-26T05:23:05.695Z,64.68
2022-09-26T05:26:00.247Z,66.57
2022-09-26T05:28:27.866Z,59.80
2022-09-26T05:30:55.322Z,60.70
2022-09-26T05:33:22.729Z,51.97
2022-09-26T05:35:53.376Z,50.85
2022-09-26T05:38:21.040Z,63.58
2022-09-26T05:40:57.490Z,54.35
2022-09-26T05:43:28.484Z,54.40
2022-09-26T05:45:59.265Z,65.35
2022-09-26T05:48:32.240Z,59.65
2022-09-26T05:51:09.930Z,66.68
2022-09-26T05:53:40.288Z,60.22
2022-09-26T05:56:08.992Z,62.03
2022-09-26T05:59:04.983Z,63.72
2022-09-26T06:01:52.404Z,63.78
2022-09-26T06:04:39.970Z,62.72
2022-09-26T06:07:27.289Z,61.22
2022-09-26T06:09:54.706Z,55.55
2022-09-26T06:12:40.713Z,54.00
2022-09-26T06:15:09.556Z,55.80
2022-09-26T06:17:37.420Z,50.97
2022-09-26T06:20:06.022Z,48.75
2022-09-26T06:22:42.374Z,47.92
2022-09-26T06:25:10.854Z,46.97
2022-09-26T06:27:42.226Z,50.35
2022-09-26T06:30:13.312Z,45.93
2022-09-26T06:32:41.390Z,46.75
2022-09-26T06:35:40.966Z,43.00
2022-09-26T06:38:17.834Z,44.08
2022-09-26T06:40:45.842Z,41.47
2022-09-26T06:43:13.259Z,41.20
2022-09-26T06:45:59.381Z,44.33
2022-09-26T06:48:42.635Z,44.20
2022-09-26T06:51:21.230Z,43.47
2022-09-26T06:53:48.731Z,45.40
2022-09-26T06:56:20.592Z,45.35
2022-09-26T06:58:49.669Z,48.80
2022-09-26T07:01:18.846Z,48.28
2022-09-26T07:04:17.264Z,52.45
2022-09-26T07:06:52.220Z,58.17
2022-09-26T07:09:20.191Z,48.95
2022-09-26T07:12:14.148Z,52.28
2022-09-26T07:14:42.157Z,52.08
2022-09-26T07:17:21.358Z,49.63
2022-09-26T07:20:14.619Z,54.65
2022-09-26T07:23:06.768Z,56.58
2022-09-26T07:25:35.367Z,58.58
2022-09-26T07:28:03.410Z,58.47
2022-09-26T07:30:46.579Z,57.30
2022-09-26T07:33:27.902Z,62.95
2022-09-26T07:36:01.897Z,60.22
2022-09-26T07:38:32.107Z,57.75
2022-09-26T07:41:01.335Z,59.88
2022-09-26T07:44:04.464Z,60.35
2022-09-26T07:46:38.387Z,57.67
2022-09-26T07:49:24.229Z,54.95
2022-09-26T07:51:56.850Z,56.75
2022-09-26T07:54:30.927Z,54.47
2022-09-26T07:57:24.559Z,57.60
2022-09-26T08:00:12.827Z,65.40
2022-09-26T08:02:51.860Z,57.90
2022-09-26T08:05:24.627Z,56.17
2022-09-26T08:07:52.894Z,58.25
2022-09-26T08:10:39.077Z,55.03
2022-09-26T08:13:28.795Z,48.95
2022-09-26T08:16:28.484Z,47.30
2022-09-26T08:18:59.090Z,47.65
2022-09-26T08:21:27.207Z,49.70
2022-09-26T08:23:57.663Z,45.38
2022-09-26T08:26:43.880Z,44.80
2022-09-26T08:29:25.551Z,40.28
2022-09-26T08:31:55.023Z,34.45
2022-09-26T08:34:25.209Z,36.50
2022-09-26T08:37:12.063Z,34.17
2022-09-26T08:40:00.880Z,32.13
2022-09-26T08:42:56.492Z,29.88
2022-09-26T08:46:33.037Z,22.73
2022-09-26T08:49:45.029Z,30.48
2022-09-26T08:52:34.580Z,25.00
2022-09-26T08:55:12.155Z,31.77
2022-09-26T08:57:50.223Z,27.65
2022-09-26T09:00:20.823Z,30.58
2022-09-26T09:03:01.805Z,24.63
2022-09-26T09:05:39.008Z,28.75
2022-09-26T09:08:25.534Z,27.33
2022-09-26T09:11:11.070Z,24.00
2022-09-26T09:14:05.753Z,25.85
2022-09-26T09:20:03.626Z,25.13
2022-09-26T09:23:06.580Z,22.85
2022-09-26T09:29:19.613Z,20.33
2022-09-26T09:32:12.321Z,19.00
2022-09-26T09:34:57.607Z,19.50
2022-09-26T09:37:51.903Z,18.10
2022-09-26T09:40:46.834Z,19.45
2022-09-26T09:43:26.876Z,21.33
2022-09-26T09:45:59.117Z,18.60
2022-09-26T09:48:28.179Z,19.20
2022-09-26T09:51:05.521Z,18.55
2022-09-26T09:54:09.845Z,17.88
2022-09-26T09:57:08.285Z,16.02
2022-09-26T10:00:02.462Z,19.42
2022-09-26T10:03:02.308Z,15.88
2022-09-26T10:05:45.586Z,14.60
2022-09-26T10:08:28.284Z,17.40
2022-09-26T10:11:26.290Z,15.77
2022-09-26T10:14:03.144Z,15.30
2022-09-26T10:16:36.482Z,18.80
2022-09-26T10:19:10.358Z,16.65
2022-09-26T10:21:43.503Z,22.58
2022-09-26T10:24:34.388Z,16.58
2022-09-26T10:27:18.329Z,20.35
2022-09-26T10:29:47.314Z,17.30
2022-09-26T10:32:18.218Z,16.05
2022-09-26T10:35:07.854Z,17.02
2022-09-26T10:37:37.541Z,16.98
2022-09-26T10:40:45.959Z,20.20
2022-09-26T10:43:25.725Z,18.65
2022-09-26T10:46:13.661Z,18.70
2022-09-26T10:49:02.697Z,19.20
2022-09-26T10:52:01.525Z,19.02
2022-09-26T10:54:44.081Z,18.70
2022-09-26T10:57:20.174Z,17.00
2022-09-26T10:59:49.045Z,16.08
2022-09-26T11:02:21.944Z,18.30
2022-09-26T11:05:14.848Z,20.73
2022-09-26T11:08:15.072Z,21.17
2022-09-26T11:11:04.241Z,13.55
2022-09-26T11:13:50.252Z,16.38
2022-09-26T11:16:20.372Z,16.20
2022-09-26T11:19:12.689Z,17.42
2022-09-26T11:21:46.637Z,16.77
2022-09-26T11:24:46.669Z,15.10
2022-09-26T11:27:43.901Z,15.95
2022-09-26T11:30:20.660Z,14.57
2022-09-26T11:33:05.501Z,14.02
2022-09-26T11:36:27.119Z,19.88
2022-09-26T11:39:12.058Z,17.38
2022-09-26T11:42:02.535Z,16.83
2022-09-26T11:44:44.923Z,13.82
2022-09-26T11:47:52.806Z,13.88
2022-09-26T11:50:50.476Z,17.90
2022-09-26T11:53:40.469Z,17.10
2022-09-26T11:56:32.030Z,15.48
2022-09-26T11:59:08.888Z,16.83
2022-09-26T12:02:15.674Z,21.00
2022-09-26T12:05:11.376Z,20.02
2022-09-26T12:07:48.534Z,19.17
2022-09-26T12:10:28.119Z,17.02
2022-09-26T12:13:22.403Z,16.80
2022-09-26T12:16:14.543Z,17.63
2022-09-26T12:18:46.061Z,15.18
2022-09-26T12:21:26.784Z,16.55
2022-09-26T12:24:07.424Z,16.80
2022-09-26T12:27:00.059Z,20.77
2022-09-26T12:32:14.635Z,16.70
2022-09-26T12:35:01.366Z,16.27
2022-09-26T12:38:05.509Z,17.63
2022-09-26T12:41:25.117Z,16.27
2022-09-26T12:44:11.186Z,17.80
2022-09-26T12:47:02.092Z,19.27
2022-09-26T12:49:59.619Z,17.10
2022-09-26T12:52:55.029Z,17.33
2022-09-26T12:55:43.860Z,16.67
2022-09-26T12:58:33.472Z,17.75
2022-09-26T13:01:12.203Z,18.55
2022-09-26T13:03:54.649Z,20.23
2022-09-26T13:09:06.663Z,17.02
2022-09-26T13:11:59.088Z,20.67
2022-09-26T13:14:39.503Z,20.33
2022-09-26T13:17:20.450Z,19.55
2022-09-26T13:20:14.560Z,16.90
2022-09-26T13:23:27.308Z,19.10
2022-09-26T13:26:01.681Z,17.58
2022-09-26T13:29:12.959Z,17.85
2022-09-26T13:31:40.270Z,16.55
2022-09-26T13:34:26.251Z,17.00
2022-09-26T13:36:55.447Z,19.27
2022-09-26T13:39:52.746Z,21.02
2022-09-26T13:42:47.789Z,20.85
2022-09-26T13:45:34.274Z,23.10
2022-09-26T13:48:07.608Z,19.98
2022-09-26T13:50:55.928Z,18.13
2022-09-26T13:53:34.656Z,16.08
2022-09-26T13:56:35.999Z,16.23
2022-09-26T13:59:12.218Z,17.13
2022-09-26T14:01:58.831Z,20.55
2022-09-26T14:04:38.281Z,15.45
2022-09-26T14:07:34.379Z,13.70
2022-09-26T14:10:02.029Z,12.98
2022-09-26T14:13:09.329Z,13.25
2022-09-26T14:15:48.845Z,12.07
2022-09-26T14:18:52.229Z,8.02
2022-09-26T14:21:45.015Z,5.95
2022-09-26T14:24:26.546Z,6.00
2022-09-26T14:27:12.300Z,7.95
2022-09-26T14:29:39.621Z,5.78
2022-09-26T14:32:12.664Z,9.98
2022-09-26T14:34:44.151Z,7.03
2022-09-26T14:37:25.456Z,5.45
2022-09-26T14:40:09.904Z,4.68
2022-09-26T14:42:51.612Z,5.35
2022-09-26T14:45:27.010Z,8.18
2022-09-26T14:48:09.577Z,8.98
2022-09-26T14:51:04.803Z,5.28
2022-09-26T14:53:47.447Z,14.82
2022-09-26T14:56:37.295Z,12.85
2022-09-26T14:59:16.949Z,5.75
2022-09-26T15:01:45.287Z,7.57
2022-09-26T15:04:22.157Z,8.77
2022-09-26T15:07:00.913Z,7.03
2022-09-26T15:09:40.057Z,11.18
2022-09-26T15:12:39.918Z,7.30
2022-09-26T15:15:16.998Z,7.43
2022-09-26T15:17:54.151Z,8.07
2022-09-26T15:20:25.208Z,9.07
2022-09-26T15:22:57.825Z,11.85
2022-09-26T15:25:33.300Z,69.60
2022-09-26T15:28:02.581Z,11.55
2022-09-26T15:30:37.470Z,11.45
2022-09-26T15:33:10.379Z,9.13
2022-09-26T15:35:41.156Z,10.52
2022-09-26T15:38:12.970Z,70.75
2022-09-26T15:40:41.447Z,101.32
2022-09-26T15:43:10.456Z,14.65
2022-09-26T15:45:50.403Z,8.52
2022-09-26T15:48:32.685Z,8.50
2022-09-26T15:51:14.781Z,6.20
2022-09-26T15:54:02.693Z,7.33
2022-09-26T15:56:42.982Z,9.32
2022-09-26T15:59:32.424Z,8.82
2022-09-26T16:02:18.742Z,9.70
2022-09-26T16:04:52.079Z,8.07
2022-09-26T16:07:26.322Z,9.50
2022-09-26T16:09:58.028Z,10.73
2022-09-26T16:12:31.734Z,10.73
2022-09-26T16:15:08.115Z,12.45
2022-09-26T16:17:51.346Z,6.53
2022-09-26T16:20:20.940Z,10.95
2022-09-26T16:22:53.785Z,6.60
2022-09-26T16:25:25.426Z,8.20
2022-09-26T16:27:59.731Z,12.50
2022-09-26T16:30:35.343Z,8.23
2022-09-26T16:33:05.114Z,7.18
2022-09-26T16:35:38.198Z,7.82
2022-09-26T16:38:24.735Z,5.40
2022-09-26T16:40:55.201Z,6.82
2022-09-26T16:43:32.950Z,5.78
2022-09-26T16:46:04.233Z,8.07
2022-09-26T16:48:38.755Z,6.60
2022-09-26T16:51:22.843Z,5.72
2022-09-26T16:54:12.534Z,6.80
2022-09-26T16:56:43.221Z,5.15
2022-09-26T16:59:24.433Z,7.30
2022-09-26T17:01:55.460Z,8.93
2022-09-26T17:04:36.872Z,7.43
2022-09-26T17:07:15.679Z,7.15
2022-09-26T17:09:44.415Z,8.07
2022-09-26T17:12:20.820Z,13.32
2022-09-26T17:14:55.174Z,8.27
2022-09-26T17:17:25.834Z,14.60
2022-09-26T17:20:01.730Z,12.95
2022-09-26T17:22:30.893Z,10.10
2022-09-26T17:25:00.841Z,9.75
2022-09-26T17:27:35.631Z,8.95
2022-09-26T17:30:08.664Z,15.73
2022-09-26T17:32:39.393Z,12.18
2022-09-26T17:35:23.254Z,12.48
2022-09-26T17:37:52.056Z,13.95
2022-09-26T17:40:25.006Z,13.57
2022-09-26T17:42:59.308Z,19.30
2022-09-26T17:45:30.848Z,16.42
2022-09-26T17:48:03.329Z,14.93
2022-09-26T17:50:32.414Z,13.75
2022-09-26T17:53:02.769Z,14.68
2022-09-26T17:55:31.096Z,14.38
2022-09-26T17:57:59.765Z,14.88
2022-09-26T18:00:32.685Z,16.83
2022-09-26T18:03:04.900Z,13.32
2022-09-26T18:05:37.190Z,18.88
2022-09-26T18:08:27.643Z,15.60
2022-09-26T18:11:01.897Z,20.02
2022-09-26T18:13:33.858Z,22.20
2022-09-26T18:16:02.281Z,18.48
2022-09-26T18:18:32.318Z,15.25
2022-09-26T18:21:05.155Z,20.50
2022-09-26T18:23:59.246Z,18.77
2022-09-26T18:26:32.682Z,17.38
2022-09-26T18:29:07.591Z,14.65
2022-09-26T18:31:42.793Z,15.85
2022-09-26T18:34:20.406Z,16.23
2022-09-26T18:36:53.680Z,17.25
2022-09-26T18:39:23.556Z,21.10
2022-09-26T18:42:01.417Z,19.67
2022-09-26T18:44:36.692Z,24.02
2022-09-26T18:47:13.262Z,16.55
2022-09-26T18:49:41.912Z,19.92
2022-09-26T18:52:16.495Z,15.85
2022-09-26T18:54:46.059Z,16.80
2022-09-26T18:57:32.784Z,16.58
2022-09-26T19:00:00.658Z,19.55
2022-09-26T19:02:34.709Z,21.15
2022-09-26T19:05:05.387Z,21.00
2022-09-26T19:07:34.095Z,20.52
2022-09-26T19:10:02.686Z,21.65
2022-09-26T19:12:31.566Z,31.80
2022-09-26T19:14:58.887Z,18.73
2022-09-26T19:17:29.407Z,13.88
2022-09-26T19:19:59.465Z,12.25
2022-09-26T19:22:28.453Z,10.65
2022-09-26T19:24:59.677Z,13.40
2022-09-26T19:27:34.004Z,12.75
2022-09-26T19:30:12.593Z,13.50
2022-09-26T19:32:45.223Z,13.43
2022-09-26T19:35:31.890Z,11.25
2022-09-26T19:38:02.792Z,11.77
2022-09-26T19:40:31.736Z,10.13
2022-09-26T19:43:06.418Z,12.80
2022-09-26T19:45:37.388Z,10.38
2022-09-26T19:48:08.376Z,8.63
2022-09-26T19:50:41.852Z,14.27
2022-09-26T19:53:17.277Z,12.65
2022-09-26T19:55:52.221Z,11.32
2022-09-26T19:58:24.935Z,19.52
2022-09-26T20:00:57.907Z,13.00
2022-09-26T20:03:34.848Z,13.55
2022-09-26T20:06:02.837Z,10.23
2022-09-26T20:08:34.105Z,13.45
2022-09-26T20:11:03.145Z,13.80
2022-09-26T20:13:50.437Z,10.43
2022-09-26T20:16:20.780Z,11.68
2022-09-26T20:18:51.038Z,12.93
2022-09-26T20:21:30.090Z,11.48
2022-09-26T20:24:02.996Z,11.82
2022-09-26T20:26:38.169Z,15.13
2022-09-26T20:29:11.452Z,12.70
2022-09-26T20:31:42.482Z,15.13
2022-09-26T20:34:12.163Z,15.68
2022-09-26T20:36:47.828Z,13.27
2022-09-26T20:39:24.782Z,18.67
2022-09-26T20:41:53.703Z,19.17
2022-09-26T20:44:30.712Z,16.83
2022-09-26T20:47:01.442Z,15.93
2022-09-26T20:49:35.632Z,21.60
2022-09-26T20:52:03.664Z,22.40
2022-09-26T20:54:35.149Z,22.80
2022-09-26T20:57:04.678Z,22.40
2022-09-26T20:59:35.792Z,20.05
2022-09-26T21:02:29.680Z,17.92
2022-09-26T21:05:01.778Z,19.23
2022-09-26T21:07:33.125Z,18.70
2022-09-26T21:10:02.315Z,21.08
2022-09-26T21:12:31.702Z,20.30
2022-09-26T21:15:01.160Z,23.38
2022-09-26T21:17:31.375Z,20.27
2022-09-26T21:20:00.786Z,20.13
2022-09-26T21:22:57.940Z,19.85
2022-09-26T21:25:28.620Z,24.70
2022-09-26T21:28:27.500Z,19.52
2022-09-26T21:31:07.799Z,16.10
2022-09-26T21:33:37.183Z,11.57
2022-09-26T21:36:06.770Z,6.32
2022-09-26T21:38:34.929Z,4.70
2022-09-26T21:41:06.485Z,5.35
2022-09-26T21:43:40.514Z,4.78
2022-09-26T21:46:08.605Z,4.40
2022-09-26T21:48:36.165Z,2.47
2022-09-26T21:51:07.212Z,2.33
2022-09-26T21:53:59.415Z,2.05
2022-09-26T21:56:32.605Z,3.10
2022-09-26T21:59:01.658Z,3.35
2022-09-26T22:01:29.964Z,2.17
2022-09-26T22:03:59.857Z,2.53
2022-09-26T22:06:29.048Z,4.68
2022-09-26T22:08:57.224Z,3.72
2022-09-26T22:11:26.632Z,4.15
2022-09-26T22:13:55.170Z,3.83
2022-09-26T22:16:22.566Z,3.05
2022-09-26T22:18:50.348Z,3.60
2022-09-26T22:21:18.072Z,5.38
2022-09-26T22:23:48.866Z,3.58
2022-09-26T22:26:17.173Z,4.97
2022-09-26T22:28:45.203Z,5.50
2022-09-26T22:31:13.365Z,5.38
2022-09-26T22:33:41.193Z,4.95
2022-09-26T22:36:08.750Z,3.95
2022-09-26T22:38:37.050Z,3.30
2022-09-26T22:41:06.710Z,2.72
2022-09-26T22:43:35.038Z,3.45
2022-09-26T22:46:03.544Z,3.53
2022-09-26T22:48:47.757Z,2.50
2022-09-26T22:51:16.818Z,3.28
2022-09-26T22:53:44.902Z,4.20
2022-09-26T22:56:14.988Z,2.83
2022-09-26T22:58:45.891Z,3.45
2022-09-26T23:01:19.685Z,4.22
2022-09-26T23:03:47.273Z,2.88
2022-09-26T23:06:15.237Z,2.67
2022-09-26T23:08:42.681Z,5.38
2022-09-26T23:11:11.966Z,4.07
2022-09-26T23:13:39.798Z,5.75
2022-09-26T23:16:20.279Z,3.40
2022-09-26T23:18:49.496Z,2.67
2022-09-26T23:21:22.480Z,5.00
2022-09-26T23:23:52.337Z,3.47
2022-09-26T23:26:25.336Z,3.70
2022-09-26T23:28:54.647Z,3.85
2022-09-26T23:31:23.385Z,2.83
2022-09-26T23:33:51.670Z,3.95
2022-09-26T23:36:19.728Z,2.63
2022-09-26T23:38:47.211Z,6.45
2022-09-26T23:41:14.997Z,5.32
2022-09-26T23:43:42.557Z,5.55
2022-09-26T23:46:10.467Z,4.57
2022-09-26T23:48:38.300Z,3.45
2022-09-26T23:51:05.899Z,2.88
2022-09-26T23:53:33.579Z,3.00
2022-09-26T23:56:09.682Z,3.95
2022-09-26T23:58:37.521Z,5.82
